sensor_id;sensor_type;location;lat;lon;timestamp;pressure;altitude;pressure_sealevel;temperature;humidity
71770;BME280;66386;52.122;5.420;2023-09-07T00:01:34;102084.72;;;18.00;85.08
71770;BME280;66386;52.122;5.420;2023-09-07T00:04:01;102084.84;;;17.96;85.19
71770;BME280;66386;52.122;5.420;2023-09-07T00:06:30;102072.91;;;17.92;85.33
71770;BME280;66386;52.122;5.420;2023-09-07T00:08:56;102072.19;;;17.89;85.74
71770;BME280;66386;52.122;5.420;2023-09-07T00:11:23;102075.78;;;17.86;85.44
71770;BME280;66386;52.122;5.420;2023-09-07T00:13:49;102073.25;;;17.85;85.42
71770;BME280;66386;52.122;5.420;2023-09-07T00:16:17;102076.00;;;17.82;85.31
71770;BME280;66386;52.122;5.420;2023-09-07T00:18:44;102069.34;;;17.76;85.67
71770;BME280;66386;52.122;5.420;2023-09-07T00:21:10;102060.06;;;17.70;86.01
71770;BME280;66386;52.122;5.420;2023-09-07T00:23:37;102068.91;;;17.66;85.76
71770;BME280;66386;52.122;5.420;2023-09-07T00:26:03;102059.44;;;17.65;86.04
71770;BME280;66386;52.122;5.420;2023-09-07T00:28:30;102059.66;;;17.60;86.26
71770;BME280;66386;52.122;5.420;2023-09-07T00:30:57;102064.09;;;17.58;86.31
71770;BME280;66386;52.122;5.420;2023-09-07T00:33:23;102066.84;;;17.55;86.37
71770;BME280;66386;52.122;5.420;2023-09-07T00:35:50;102061.91;;;17.49;86.67
71770;BME280;66386;52.122;5.420;2023-09-07T00:38:17;102060.31;;;17.47;86.71
71770;BME280;66386;52.122;5.420;2023-09-07T00:40:44;102061.38;;;17.42;86.79
71770;BME280;66386;52.122;5.420;2023-09-07T00:43:11;102062.34;;;17.40;86.60
71770;BME280;66386;52.122;5.420;2023-09-07T00:45:39;102061.66;;;17.36;86.75
71770;BME280;66386;52.122;5.420;2023-09-07T00:48:06;102060.88;;;17.34;86.95
71770;BME280;66386;52.122;5.420;2023-09-07T00:50:33;102062.84;;;17.29;86.71
71770;BME280;66386;52.122;5.420;2023-09-07T00:53:00;102055.19;;;17.26;86.80
71770;BME280;66386;52.122;5.420;2023-09-07T00:55:29;102049.28;;;17.22;87.25
71770;BME280;66386;52.122;5.420;2023-09-07T00:57:59;102052.03;;;17.19;86.91
71770;BME280;66386;52.122;5.420;2023-09-07T01:00:26;102055.59;;;17.17;87.31
71770;BME280;66386;52.122;5.420;2023-09-07T01:02:53;102055.72;;;17.14;87.32
71770;BME280;66386;52.122;5.420;2023-09-07T01:05:24;102052.44;;;17.10;87.22
71770;BME280;66386;52.122;5.420;2023-09-07T01:07:59;102051.72;;;17.06;87.33
71770;BME280;66386;52.122;5.420;2023-09-07T01:10:30;102050.09;;;17.04;87.24
71770;BME280;66386;52.122;5.420;2023-09-07T01:12:56;102043.31;;;17.01;87.38
71770;BME280;66386;52.122;5.420;2023-09-07T01:15:23;102049.34;;;17.02;87.42
71770;BME280;66386;52.122;5.420;2023-09-07T01:17:50;102041.75;;;16.97;87.55
71770;BME280;66386;52.122;5.420;2023-09-07T01:20:17;102052.28;;;16.94;87.67
71770;BME280;66386;52.122;5.420;2023-09-07T01:22:45;102053.31;;;16.90;87.49
71770;BME280;66386;52.122;5.420;2023-09-07T01:25:12;102048.25;;;16.87;87.79
71770;BME280;66386;52.122;5.420;2023-09-07T01:27:39;102056.16;;;16.84;87.96
71770;BME280;66386;52.122;5.420;2023-09-07T01:30:07;102054.53;;;16.81;87.77
71770;BME280;66386;52.122;5.420;2023-09-07T01:32:34;102051.22;;;16.78;87.79
71770;BME280;66386;52.122;5.420;2023-09-07T01:35:04;102054.81;;;16.75;88.00
71770;BME280;66386;52.122;5.420;2023-09-07T01:37:33;102048.06;;;16.71;88.13
71770;BME280;66386;52.122;5.420;2023-09-07T01:39:59;102053.41;;;16.68;88.12
71770;BME280;66386;52.122;5.420;2023-09-07T01:42:27;102044.88;;;16.64;88.14
71770;BME280;66386;52.122;5.420;2023-09-07T01:44:53;102046.72;;;16.62;88.34
71770;BME280;66386;52.122;5.420;2023-09-07T01:47:20;102049.38;;;16.61;87.98
71770;BME280;66386;52.122;5.420;2023-09-07T01:49:47;102042.56;;;16.58;88.20
71770;BME280;66386;52.122;5.420;2023-09-07T01:52:13;102040.09;;;16.55;88.24
71770;BME280;66386;52.122;5.420;2023-09-07T01:54:40;102039.31;;;16.53;88.33
71770;BME280;66386;52.122;5.420;2023-09-07T01:57:06;102038.47;;;16.52;88.19
71770;BME280;66386;52.122;5.420;2023-09-07T01:59:33;102038.53;;;16.51;87.97
71770;BME280;66386;52.122;5.420;2023-09-07T02:02:00;102037.84;;;16.47;88.07
71770;BME280;66386;52.122;5.420;2023-09-07T02:04:26;102038.94;;;16.42;88.02
71770;BME280;66386;52.122;5.420;2023-09-07T02:06:53;102039.91;;;16.39;88.10
71770;BME280;66386;52.122;5.420;2023-09-07T02:09:19;102036.59;;;16.35;88.28
71770;BME280;66386;52.122;5.420;2023-09-07T02:11:46;102034.09;;;16.32;88.51
71770;BME280;66386;52.122;5.420;2023-09-07T02:14:12;102030.00;;;16.28;88.22
71770;BME280;66386;52.122;5.420;2023-09-07T02:16:39;102037.88;;;16.25;88.55
71770;BME280;66386;52.122;5.420;2023-09-07T02:19:06;102044.06;;;16.22;88.58
71770;BME280;66386;52.122;5.420;2023-09-07T02:21:33;102041.59;;;16.19;88.74
71770;BME280;66386;52.122;5.420;2023-09-07T02:24:00;102038.25;;;16.16;88.79
71770;BME280;66386;52.122;5.420;2023-09-07T02:26:26;102036.63;;;16.13;88.85
71770;BME280;66386;52.122;5.420;2023-09-07T02:28:53;102039.34;;;16.10;88.87
71770;BME280;66386;52.122;5.420;2023-09-07T02:31:20;102036.00;;;16.08;88.90
71770;BME280;66386;52.122;5.420;2023-09-07T02:33:47;102039.53;;;16.05;88.93
71770;BME280;66386;52.122;5.420;2023-09-07T02:36:13;102036.25;;;16.02;89.44
71770;BME280;66386;52.122;5.420;2023-09-07T02:38:40;102035.50;;;15.98;89.11
71770;BME280;66386;52.122;5.420;2023-09-07T02:41:06;102038.22;;;15.95;89.17
71770;BME280;66386;52.122;5.420;2023-09-07T02:43:33;102036.66;;;15.91;89.25
71770;BME280;66386;52.122;5.420;2023-09-07T02:45:59;102046.31;;;15.87;89.53
71770;BME280;66386;52.122;5.420;2023-09-07T02:48:26;102036.91;;;15.85;89.46
71770;BME280;66386;52.122;5.420;2023-09-07T02:50:53;102042.16;;;15.83;89.28
71770;BME280;66386;52.122;5.420;2023-09-07T02:53:20;102038.84;;;15.80;89.48
71770;BME280;66386;52.122;5.420;2023-09-07T02:55:47;102043.22;;;15.78;89.23
71770;BME280;66386;52.122;5.420;2023-09-07T02:58:13;102041.50;;;15.77;89.33
71770;BME280;66386;52.122;5.420;2023-09-07T03:00:44;102044.16;;;15.75;89.27
71770;BME280;66386;52.122;5.420;2023-09-07T03:03:11;102038.28;;;15.71;89.60
71770;BME280;66386;52.122;5.420;2023-09-07T03:05:40;102047.00;;;15.69;89.48
71770;BME280;66386;52.122;5.420;2023-09-07T03:08:06;102048.84;;;15.67;89.59
71770;BME280;66386;52.122;5.420;2023-09-07T03:10:36;102047.19;;;15.64;89.39
71770;BME280;66386;52.122;5.420;2023-09-07T03:13:07;102051.56;;;15.62;89.66
71770;BME280;66386;52.122;5.420;2023-09-07T03:15:34;102052.56;;;15.60;89.53
71770;BME280;66386;52.122;5.420;2023-09-07T03:18:01;102045.63;;;15.60;89.54
71770;BME280;66386;52.122;5.420;2023-09-07T03:20:28;102042.25;;;15.58;89.70
71770;BME280;66386;52.122;5.420;2023-09-07T03:22:54;102046.63;;;15.56;89.52
71770;BME280;66386;52.122;5.420;2023-09-07T03:25:22;102046.75;;;15.53;89.59
71770;BME280;66386;52.122;5.420;2023-09-07T03:27:49;102043.47;;;15.49;89.70
71770;BME280;66386;52.122;5.420;2023-09-07T03:30:16;102040.06;;;15.47;89.53
71770;BME280;66386;52.122;5.420;2023-09-07T03:32:42;102036.69;;;15.45;89.59
71770;BME280;66386;52.122;5.420;2023-09-07T03:35:09;102036.81;;;15.42;89.48
71770;BME280;66386;52.122;5.420;2023-09-07T03:37:37;102036.81;;;15.42;89.40
71770;BME280;66386;52.122;5.420;2023-09-07T03:40:05;102033.47;;;15.39;89.73
71770;BME280;66386;52.122;5.420;2023-09-07T03:42:32;102035.34;;;15.35;89.74
71770;BME280;66386;52.122;5.420;2023-09-07T03:44:59;102038.00;;;15.33;89.80
71770;BME280;66386;52.122;5.420;2023-09-07T03:47:26;102039.03;;;15.29;89.98
71770;BME280;66386;52.122;5.420;2023-09-07T03:49:56;102033.91;;;15.28;90.04
71770;BME280;66386;52.122;5.420;2023-09-07T03:52:23;102041.72;;;15.26;90.12
71770;BME280;66386;52.122;5.420;2023-09-07T03:54:51;102039.25;;;15.23;89.73
71770;BME280;66386;52.122;5.420;2023-09-07T03:57:19;102042.81;;;15.21;90.06
71770;BME280;66386;52.122;5.420;2023-09-07T03:59:47;102035.91;;;15.19;90.17
71770;BME280;66386;52.122;5.420;2023-09-07T04:02:14;102045.63;;;15.14;90.25
71770;BME280;66386;52.122;5.420;2023-09-07T04:04:41;102050.06;;;15.11;90.37
71770;BME280;66386;52.122;5.420;2023-09-07T04:07:07;102049.28;;;15.09;90.41
71770;BME280;66386;52.122;5.420;2023-09-07T04:09:34;102045.88;;;15.07;90.24
71770;BME280;66386;52.122;5.420;2023-09-07T04:12:01;102046.81;;;15.06;90.44
71770;BME280;66386;52.122;5.420;2023-09-07T04:14:30;102039.09;;;15.04;90.58
71770;BME280;66386;52.122;5.420;2023-09-07T04:16:57;102046.91;;;15.03;90.63
71770;BME280;66386;52.122;5.420;2023-09-07T04:19:23;102053.03;;;15.00;90.66
71770;BME280;66386;52.122;5.420;2023-09-07T04:21:50;102048.88;;;14.96;90.69
71770;BME280;66386;52.122;5.420;2023-09-07T04:24:17;102047.16;;;14.95;90.68
71770;BME280;66386;52.122;5.420;2023-09-07T04:26:44;102046.41;;;14.93;90.92
71770;BME280;66386;52.122;5.420;2023-09-07T04:29:10;102047.34;;;14.90;90.76
71770;BME280;66386;52.122;5.420;2023-09-07T04:31:39;102043.09;;;14.88;90.64
71770;BME280;66386;52.122;5.420;2023-09-07T04:34:06;102045.75;;;14.86;90.71
71770;BME280;66386;52.122;5.420;2023-09-07T04:36:32;102041.56;;;14.83;91.01
71770;BME280;66386;52.122;5.420;2023-09-07T04:38:59;102042.50;;;14.81;90.92
71770;BME280;66386;52.122;5.420;2023-09-07T04:41:25;102050.38;;;14.78;90.97
71770;BME280;66386;52.122;5.420;2023-09-07T04:43:52;102051.31;;;14.75;90.78
71770;BME280;66386;52.122;5.420;2023-09-07T04:46:21;102052.22;;;14.74;91.15
71770;BME280;66386;52.122;5.420;2023-09-07T04:48:49;102055.75;;;14.72;91.18
71770;BME280;66386;52.122;5.420;2023-09-07T04:51:15;102052.38;;;14.70;91.02
71770;BME280;66386;52.122;5.420;2023-09-07T04:53:42;102047.25;;;14.68;91.28
71770;BME280;66386;52.122;5.420;2023-09-07T04:56:09;102056.78;;;14.68;91.34
71770;BME280;66386;52.122;5.420;2023-09-07T04:58:35;102047.38;;;14.65;91.43
71770;BME280;66386;52.122;5.420;2023-09-07T05:01:06;102058.59;;;14.64;91.11
71770;BME280;66386;52.122;5.420;2023-09-07T05:03:35;102056.97;;;14.61;91.31
71770;BME280;66386;52.122;5.420;2023-09-07T05:06:03;102052.66;;;14.62;91.36
71770;BME280;66386;52.122;5.420;2023-09-07T05:08:30;102052.69;;;14.60;91.64
71770;BME280;66386;52.122;5.420;2023-09-07T05:11:04;102057.97;;;14.57;91.40
71770;BME280;66386;52.122;5.420;2023-09-07T05:13:31;102058.78;;;14.58;91.60
71770;BME280;66386;52.122;5.420;2023-09-07T05:15:59;102059.56;;;14.60;91.25
71770;BME280;66386;52.122;5.420;2023-09-07T05:18:29;102062.22;;;14.58;91.23
71770;BME280;66386;52.122;5.420;2023-09-07T05:20:57;102062.25;;;14.57;91.40
71770;BME280;66386;52.122;5.420;2023-09-07T05:23:24;102071.78;;;14.56;91.38
71770;BME280;66386;52.122;5.420;2023-09-07T05:25:53;102076.97;;;14.56;91.54
71770;BME280;66386;52.122;5.420;2023-09-07T05:28:22;102071.78;;;14.56;91.64
71770;BME280;66386;52.122;5.420;2023-09-07T05:30:49;102079.53;;;14.56;91.51
71770;BME280;66386;52.122;5.420;2023-09-07T05:33:16;102084.66;;;14.58;91.77
71770;BME280;66386;52.122;5.420;2023-09-07T05:35:45;102078.59;;;14.59;91.61
71770;BME280;66386;52.122;5.420;2023-09-07T05:38:14;102081.13;;;14.60;91.84
71770;BME280;66386;52.122;5.420;2023-09-07T05:40:43;102082.84;;;14.61;91.68
71770;BME280;66386;52.122;5.420;2023-09-07T05:43:11;102075.03;;;14.63;91.65
71770;BME280;66386;52.122;5.420;2023-09-07T05:45:41;102084.47;;;14.64;91.67
71770;BME280;66386;52.122;5.420;2023-09-07T05:48:08;102078.41;;;14.65;91.57
71770;BME280;66386;52.122;5.420;2023-09-07T05:50:37;102081.72;;;14.69;91.61
71770;BME280;66386;52.122;5.420;2023-09-07T05:53:04;102082.53;;;14.71;91.63
71770;BME280;66386;52.122;5.420;2023-09-07T05:55:31;102082.44;;;14.74;91.76
71770;BME280;66386;52.122;5.420;2023-09-07T05:57:58;102083.16;;;14.77;91.42
71770;BME280;66386;52.122;5.420;2023-09-07T06:00:28;102088.28;;;14.79;91.58
71770;BME280;66386;52.122;5.420;2023-09-07T06:02:55;102089.97;;;14.80;91.74
71770;BME280;66386;52.122;5.420;2023-09-07T06:05:22;102094.22;;;14.82;91.63
71770;BME280;66386;52.122;5.420;2023-09-07T06:07:49;102092.34;;;14.86;91.63
71770;BME280;66386;52.122;5.420;2023-09-07T06:10:15;102091.41;;;14.89;91.68
71770;BME280;66386;52.122;5.420;2023-09-07T06:12:43;102098.13;;;14.94;91.79
71770;BME280;66386;52.122;5.420;2023-09-07T06:15:10;102099.69;;;14.98;91.87
71770;BME280;66386;52.122;5.420;2023-09-07T06:17:37;102106.47;;;15.03;91.51
71770;BME280;66386;52.122;5.420;2023-09-07T06:20:04;102106.31;;;15.07;91.93
71770;BME280;66386;52.122;5.420;2023-09-07T06:22:32;102107.88;;;15.11;91.75
71770;BME280;66386;52.122;5.420;2023-09-07T06:24:58;102106.00;;;15.15;92.36
71770;BME280;66386;52.122;5.420;2023-09-07T06:27:25;102105.78;;;15.21;92.27
71770;BME280;66386;52.122;5.420;2023-09-07T06:29:51;102104.84;;;15.24;92.27
71770;BME280;66386;52.122;5.420;2023-09-07T06:32:18;102110.66;;;15.30;92.22
71770;BME280;66386;52.122;5.420;2023-09-07T06:34:45;102119.91;;;15.36;92.28
71770;BME280;66386;52.122;5.420;2023-09-07T06:37:12;102110.19;;;15.43;92.83
71770;BME280;66386;52.122;5.420;2023-09-07T06:39:39;102121.97;;;15.51;92.75
71770;BME280;66386;52.122;5.420;2023-09-07T06:42:05;102115.78;;;15.56;93.07
71770;BME280;66386;52.122;5.420;2023-09-07T06:44:33;102122.28;;;15.66;93.58
71770;BME280;66386;52.122;5.420;2023-09-07T06:47:00;102124.72;;;15.70;93.68
71770;BME280;66386;52.122;5.420;2023-09-07T06:49:27;102121.78;;;15.80;93.85
71770;BME280;66386;52.122;5.420;2023-09-07T06:51:56;102116.09;;;15.94;94.00
71770;BME280;66386;52.122;5.420;2023-09-07T06:54:23;102119.22;;;16.02;94.52
71770;BME280;66386;52.122;5.420;2023-09-07T06:56:50;102119.34;;;16.21;94.97
71770;BME280;66386;52.122;5.420;2023-09-07T06:59:17;102115.63;;;16.49;95.24
71770;BME280;66386;52.122;5.420;2023-09-07T07:01:43;102111.94;;;16.75;94.93
71770;BME280;66386;52.122;5.420;2023-09-07T07:04:10;102124.88;;;16.97;94.58
71770;BME280;66386;52.122;5.420;2023-09-07T07:06:37;102114.81;;;17.29;93.84
71770;BME280;66386;52.122;5.420;2023-09-07T07:09:05;102118.91;;;17.54;92.80
71770;BME280;66386;52.122;5.420;2023-09-07T07:11:32;102122.03;;;17.79;92.14
71770;BME280;66386;52.122;5.420;2023-09-07T07:13:58;102122.59;;;18.05;91.43
71770;BME280;66386;52.122;5.420;2023-09-07T07:16:25;102123.63;;;18.38;90.30
71770;BME280;66386;52.122;5.420;2023-09-07T07:18:51;102120.63;;;18.63;88.34
71770;BME280;66386;52.122;5.420;2023-09-07T07:21:18;102134.50;;;18.98;87.82
71770;BME280;66386;52.122;5.420;2023-09-07T07:23:45;102134.06;;;19.24;85.10
71770;BME280;66386;52.122;5.420;2023-09-07T07:26:11;102124.94;;;19.48;83.10
71770;BME280;66386;52.122;5.420;2023-09-07T07:28:38;102126.38;;;19.70;81.64
71770;BME280;66386;52.122;5.420;2023-09-07T07:31:10;102129.22;;;19.97;81.85
71770;BME280;66386;52.122;5.420;2023-09-07T07:33:37;102127.09;;;20.20;78.96
71770;BME280;66386;52.122;5.420;2023-09-07T07:36:05;102124.25;;;20.39;78.79
71770;BME280;66386;52.122;5.420;2023-09-07T07:38:31;102123.19;;;20.57;77.28
71770;BME280;66386;52.122;5.420;2023-09-07T07:40:58;102119.31;;;20.79;78.40
71770;BME280;66386;52.122;5.420;2023-09-07T07:43:24;102123.72;;;20.93;75.27
71770;BME280;66386;52.122;5.420;2023-09-07T07:45:53;102113.00;;;21.12;75.19
71770;BME280;66386;52.122;5.420;2023-09-07T07:48:20;102121.56;;;21.28;75.66
71770;BME280;66386;52.122;5.420;2023-09-07T07:50:46;102115.59;;;21.41;73.51
71770;BME280;66386;52.122;5.420;2023-09-07T07:53:16;102101.56;;;21.56;74.02
71770;BME280;66386;52.122;5.420;2023-09-07T07:55:43;102105.41;;;21.78;73.50
71770;BME280;66386;52.122;5.420;2023-09-07T07:58:09;102104.53;;;21.92;72.07
71770;BME280;66386;52.122;5.420;2023-09-07T08:00:39;102109.63;;;22.08;71.74
71770;BME280;66386;52.122;5.420;2023-09-07T08:03:07;102105.88;;;22.25;72.57
71770;BME280;66386;52.122;5.420;2023-09-07T08:05:34;102100.47;;;22.41;71.68
71770;BME280;66386;52.122;5.420;2023-09-07T08:08:01;102101.31;;;22.54;71.23
71770;BME280;66386;52.122;5.420;2023-09-07T08:10:29;102105.22;;;22.74;70.59
71770;BME280;66386;52.122;5.420;2023-09-07T08:12:58;102109.50;;;22.88;69.44
71770;BME280;66386;52.122;5.420;2023-09-07T08:15:24;102098.38;;;22.97;70.25
71770;BME280;66386;52.122;5.420;2023-09-07T08:17:52;102101.53;;;23.15;69.45
71770;BME280;66386;52.122;5.420;2023-09-07T08:20:19;102098.09;;;23.39;69.06
71770;BME280;66386;52.122;5.420;2023-09-07T08:22:46;102090.97;;;23.65;65.86
71770;BME280;66386;52.122;5.420;2023-09-07T08:25:14;102094.50;;;23.77;65.89
71770;BME280;66386;52.122;5.420;2023-09-07T08:27:41;102087.19;;;23.94;64.34
71770;BME280;66386;52.122;5.420;2023-09-07T08:30:14;102084.75;;;24.03;63.39
71770;BME280;66386;52.122;5.420;2023-09-07T08:32:42;102092.63;;;24.15;64.26
71770;BME280;66386;52.122;5.420;2023-09-07T08:35:10;102083.38;;;24.33;62.87
71770;BME280;66386;52.122;5.420;2023-09-07T08:37:42;102085.91;;;24.46;62.20
71770;BME280;66386;52.122;5.420;2023-09-07T08:40:08;102082.44;;;24.57;62.36
71770;BME280;66386;52.122;5.420;2023-09-07T08:42:36;102079.38;;;24.63;61.19
71770;BME280;66386;52.122;5.420;2023-09-07T08:45:08;102083.94;;;24.84;62.06
71770;BME280;66386;52.122;5.420;2023-09-07T08:47:36;102070.41;;;25.00;60.21
71770;BME280;66386;52.122;5.420;2023-09-07T08:50:05;102074.81;;;25.11;59.68
71770;BME280;66386;52.122;5.420;2023-09-07T08:52:33;102072.31;;;25.20;58.48
71770;BME280;66386;52.122;5.420;2023-09-07T08:55:01;102068.59;;;25.34;59.57
71770;BME280;66386;52.122;5.420;2023-09-07T08:57:31;102070.19;;;25.58;59.46
71770;BME280;66386;52.122;5.420;2023-09-07T08:59:58;102068.16;;;25.83;58.80
71770;BME280;66386;52.122;5.420;2023-09-07T09:02:25;102067.63;;;26.00;58.03
71770;BME280;66386;52.122;5.420;2023-09-07T09:04:52;102069.56;;;26.40;57.63
71770;BME280;66386;52.122;5.420;2023-09-07T09:07:20;102060.31;;;26.77;54.36
71770;BME280;66386;52.122;5.420;2023-09-07T09:09:48;102061.50;;;27.04;53.97
71770;BME280;66386;52.122;5.420;2023-09-07T09:12:16;102067.56;;;27.55;53.77
71770;BME280;66386;52.122;5.420;2023-09-07T09:14:44;102061.72;;;28.00;51.97
71770;BME280;66386;52.122;5.420;2023-09-07T09:17:12;102058.13;;;28.48;50.52
71770;BME280;66386;52.122;5.420;2023-09-07T09:19:40;102053.34;;;28.89;50.30
71770;BME280;66386;52.122;5.420;2023-09-07T09:22:08;102061.25;;;29.17;48.11
71770;BME280;66386;52.122;5.420;2023-09-07T09:24:35;102055.44;;;29.14;47.71
71770;BME280;66386;52.122;5.420;2023-09-07T09:27:03;102048.47;;;29.22;49.28
71770;BME280;66386;52.122;5.420;2023-09-07T09:29:33;102051.09;;;29.40;47.37
71770;BME280;66386;52.122;5.420;2023-09-07T09:32:04;102059.50;;;29.36;45.20
71770;BME280;66386;52.122;5.420;2023-09-07T09:34:33;102056.16;;;29.52;46.40
71770;BME280;66386;52.122;5.420;2023-09-07T09:37:03;102062.19;;;29.80;45.84
71770;BME280;66386;52.122;5.420;2023-09-07T09:39:30;102053.81;;;29.67;44.34
71770;BME280;66386;52.122;5.420;2023-09-07T09:41:57;102056.94;;;28.98;45.98
71770;BME280;66386;52.122;5.420;2023-09-07T09:44:23;102051.16;;;28.47;47.51
71770;BME280;66386;52.122;5.420;2023-09-07T09:46:52;102053.28;;;28.34;47.96
71770;BME280;66386;52.122;5.420;2023-09-07T09:49:22;102053.38;;;28.14;48.29
71770;BME280;66386;52.122;5.420;2023-09-07T09:51:49;102057.94;;;28.12;48.51
71770;BME280;66386;52.122;5.420;2023-09-07T09:54:22;102054.91;;;28.07;48.61
71770;BME280;66386;52.122;5.420;2023-09-07T09:56:52;102048.50;;;28.10;47.99
71770;BME280;66386;52.122;5.420;2023-09-07T09:59:20;102054.19;;;28.05;47.01
71770;BME280;66386;52.122;5.420;2023-09-07T10:01:47;102056.72;;;28.07;46.33
71770;BME280;66386;52.122;5.420;2023-09-07T10:04:17;102048.38;;;28.01;47.90
71770;BME280;66386;52.122;5.420;2023-09-07T10:06:57;102052.25;;;28.07;48.49
71770;BME280;66386;52.122;5.420;2023-09-07T10:09:29;102051.09;;;28.19;48.34
71770;BME280;66386;52.122;5.420;2023-09-07T10:11:58;102048.59;;;28.28;47.92
71770;BME280;66386;52.122;5.420;2023-09-07T10:14:25;102042.78;;;28.14;47.56
71770;BME280;66386;52.122;5.420;2023-09-07T10:16:53;102044.03;;;28.10;47.82
71770;BME280;66386;52.122;5.420;2023-09-07T10:19:24;102040.69;;;28.18;47.94
71770;BME280;66386;52.122;5.420;2023-09-07T10:21:53;102042.47;;;28.27;47.62
71770;BME280;66386;52.122;5.420;2023-09-07T10:24:27;102047.72;;;28.37;46.85
71770;BME280;66386;52.122;5.420;2023-09-07T10:27:01;102036.31;;;28.36;47.11
71770;BME280;66386;52.122;5.420;2023-09-07T10:29:28;102030.56;;;28.51;48.21
71770;BME280;66386;52.122;5.420;2023-09-07T10:31:55;102036.38;;;28.64;46.25
71770;BME280;66386;52.122;5.420;2023-09-07T10:34:34;102040.38;;;28.68;46.59
71770;BME280;66386;52.122;5.420;2023-09-07T10:37:01;102030.41;;;28.62;45.45
71770;BME280;66386;52.122;5.420;2023-09-07T10:39:33;102026.94;;;28.52;45.26
71770;BME280;66386;52.122;5.420;2023-09-07T10:41:59;102027.09;;;28.50;45.73
71770;BME280;66386;52.122;5.420;2023-09-07T10:44:27;102026.78;;;28.53;44.01
71770;BME280;66386;52.122;5.420;2023-09-07T10:46:56;102024.84;;;28.46;44.64
71770;BME280;66386;52.122;5.420;2023-09-07T10:49:23;102025.56;;;28.48;47.35
71770;BME280;66386;52.122;5.420;2023-09-07T10:51:50;102024.25;;;28.62;45.99
71770;BME280;66386;52.122;5.420;2023-09-07T10:54:21;102024.88;;;28.73;46.27
71770;BME280;66386;52.122;5.420;2023-09-07T10:56:49;102020.81;;;28.79;45.92
71770;BME280;66386;52.122;5.420;2023-09-07T10:59:17;102019.41;;;28.85;45.63
71770;BME280;66386;52.122;5.420;2023-09-07T11:01:44;102022.75;;;28.87;45.22
71770;BME280;66386;52.122;5.420;2023-09-07T11:04:12;102026.03;;;28.99;45.39
71770;BME280;66386;52.122;5.420;2023-09-07T11:06:40;102014.13;;;29.03;45.48
71770;BME280;66386;52.122;5.420;2023-09-07T11:09:08;102013.56;;;29.27;46.29
71770;BME280;66386;52.122;5.420;2023-09-07T11:11:38;102012.31;;;29.21;44.88
71770;BME280;66386;52.122;5.420;2023-09-07T11:14:05;102012.75;;;29.27;44.52
71770;BME280;66386;52.122;5.420;2023-09-07T11:16:35;102009.34;;;29.34;45.13
71770;BME280;66386;52.122;5.420;2023-09-07T11:19:06;102010.31;;;29.51;45.06
71770;BME280;66386;52.122;5.420;2023-09-07T11:21:34;102010.06;;;29.63;45.03
71770;BME280;66386;52.122;5.420;2023-09-07T11:24:03;102002.41;;;29.59;44.22
71770;BME280;66386;52.122;5.420;2023-09-07T11:26:45;101996.50;;;29.66;45.51
71770;BME280;66386;52.122;5.420;2023-09-07T11:29:16;101994.28;;;29.79;43.76
71770;BME280;66386;52.122;5.420;2023-09-07T11:31:44;101992.72;;;29.86;44.02
71770;BME280;66386;52.122;5.420;2023-09-07T11:34:12;101991.19;;;29.84;42.69
71770;BME280;66386;52.122;5.420;2023-09-07T11:36:40;101991.47;;;29.81;42.19
71770;BME280;66386;52.122;5.420;2023-09-07T11:39:08;101987.47;;;29.76;41.60
71770;BME280;66386;52.122;5.420;2023-09-07T11:41:41;101983.00;;;29.77;41.55
71770;BME280;66386;52.122;5.420;2023-09-07T11:44:09;101992.41;;;29.71;41.90
71770;BME280;66386;52.122;5.420;2023-09-07T11:46:36;101985.88;;;29.66;41.02
71770;BME280;66386;52.122;5.420;2023-09-07T11:49:04;101984.81;;;29.76;42.51
71770;BME280;66386;52.122;5.420;2023-09-07T11:51:36;101986.56;;;29.86;41.35
71770;BME280;66386;52.122;5.420;2023-09-07T11:54:02;101974.72;;;29.80;41.39
71770;BME280;66386;52.122;5.420;2023-09-07T11:56:30;101970.06;;;29.74;42.21
71770;BME280;66386;52.122;5.420;2023-09-07T11:58:57;101969.84;;;29.85;41.28
71770;BME280;66386;52.122;5.420;2023-09-07T12:01:24;101974.81;;;29.88;42.45
71770;BME280;66386;52.122;5.420;2023-09-07T12:03:52;101968.06;;;29.94;42.03
71770;BME280;66386;52.122;5.420;2023-09-07T12:06:19;101974.28;;;30.11;42.69
71770;BME280;66386;52.122;5.420;2023-09-07T12:09:05;101969.34;;;30.16;43.53
71770;BME280;66386;52.122;5.420;2023-09-07T12:11:44;101961.06;;;30.19;41.45
71770;BME280;66386;52.122;5.420;2023-09-07T12:14:11;101966.03;;;30.22;41.94
71770;BME280;66386;52.122;5.420;2023-09-07T12:16:37;101962.66;;;30.04;43.61
71770;BME280;66386;52.122;5.420;2023-09-07T12:19:04;101968.25;;;30.01;42.16
71770;BME280;66386;52.122;5.420;2023-09-07T12:21:31;101959.16;;;30.03;43.62
71770;BME280;66386;52.122;5.420;2023-09-07T12:23:57;101956.00;;;30.00;42.73
71770;BME280;66386;52.122;5.420;2023-09-07T12:26:24;101957.66;;;30.01;42.58
71770;BME280;66386;52.122;5.420;2023-09-07T12:28:51;101950.81;;;29.90;41.71
71770;BME280;66386;52.122;5.420;2023-09-07T12:31:17;101954.25;;;29.82;41.53
71770;BME280;66386;52.122;5.420;2023-09-07T12:33:46;101948.78;;;29.84;42.52
71770;BME280;66386;52.122;5.420;2023-09-07T12:36:12;101956.44;;;29.87;43.23
71770;BME280;66386;52.122;5.420;2023-09-07T12:38:39;101948.69;;;29.75;43.21
71770;BME280;66386;52.122;5.420;2023-09-07T12:41:06;101941.22;;;29.71;43.57
71770;BME280;66386;52.122;5.420;2023-09-07T12:43:32;101946.53;;;29.71;43.74
71770;BME280;66386;52.122;5.420;2023-09-07T12:46:00;101949.66;;;29.66;43.68
71770;BME280;66386;52.122;5.420;2023-09-07T12:48:27;101952.63;;;29.63;42.96
71770;BME280;66386;52.122;5.420;2023-09-07T12:50:54;101939.31;;;29.55;43.27
71770;BME280;66386;52.122;5.420;2023-09-07T12:53:21;101940.84;;;29.39;42.92